EW6452 Weather Reports


Display with metric or nautical units.
time (UTC)temp
F
wind
direction
speed
MPH
gust
MPH
rain 1hr
in
rain 24hr
in
rain mn
in
humidity
%
barometer
mb
20210917234008 93 66 2.0 5.0 0.00 0.00 0.00 47 1013.0
20210917233553 92 49 2.0 6.0 0.00 0.00 0.00 46 1013.8
20210917233507 93 74 2.0 6.0 0.00 0.00 0.00 47 1013.0
20210917233253 93 123 2.0 6.0 0.00 0.00 0.00 45 1013.7
20210917233007 93 74 2.0 6.0 0.00 0.00 0.00 46 1013.0
20210917232604 93 86 2.0 5.0 0.00 0.00 0.00 45 1013.7
20210917232507 94 61 2.0 5.0 0.00 0.00 0.00 46 1012.9
20210917232052 94 67 2.0 6.0 0.00 0.00 0.00 45 1013.8
20210917232008 94 55 2.0 5.0 0.00 0.00 0.00 45 1012.9
20210917231619 94 46 2.0 6.0 0.00 0.00 0.00 44 1013.7
20210917231508 95 66 1.0 5.0 0.00 0.00 0.00 45 1012.9
20210917231050 95 55 2.0 6.0 0.00 0.00 0.00 44 1013.7
20210917231008 95 71 1.0 6.0 0.00 0.00 0.00 44 1012.9
20210917230638 95 169 1.0 6.0 0.00 0.00 0.00 43 1013.6
20210917230508 96 74 1.0 6.0 0.00 0.00 0.00 44 1012.8
20210917230142 96 101 1.0 4.0 0.00 0.00 0.00 43 1013.6
20210917230008 97 92 1.0 4.0 0.00 0.00 0.00 43 1012.8
20210917225557 96 91 1.0 6.0 0.00 0.00 0.00 44 1013.5
20210917225508 96 74 2.0 6.0 0.00 0.00 0.00 44 1012.7
20210917225051 96 86 2.0 6.0 0.00 0.00 0.00 44 1013.5
20210917225008 96 37 2.0 6.0 0.00 0.00 0.00 45 1012.7
20210917224833 96 276 1.0 7.0 0.00 0.00 0.00 45 1013.5
20210917224508 96 45 2.0 7.0 0.00 0.00 0.00 45 1012.7
20210917224052 96 37 3.0 7.0 0.00 0.00 0.00 44 1013.6
20210917224008 96 77 2.0 7.0 0.00 0.00 0.00 44 1012.7
20210917223602 96 79 2.0 4.0 0.00 0.00 0.00 44 1013.6
20210917223507 97 85 2.0 4.0 0.00 0.00 0.00 43 1012.7
20210917223142 96 75 1.0 4.0 0.00 0.00 0.00 44 1013.5
20210917223007 97 77 2.0 4.0 0.00 0.00 0.00 44 1012.6
20210917222557 97 82 1.0 5.0 0.00 0.00 0.00 43 1013.5
20210917222507 97 55 2.0 5.0 0.00 0.00 0.00 44 1012.6
20210917222056 97 75 2.0 5.0 0.00 0.00 0.00 44 1013.3
20210917222008 97 44 1.0 5.0 0.00 0.00 0.00 44 1012.5
20210917221806 97 63 2.0 5.0 0.00 0.00 0.00 43 1013.3
20210917221508 97 58 1.0 5.0 0.00 0.00 0.00 43 1012.5
20210917221053 97 66 1.0 3.0 0.00 0.00 0.00 41 1013.3
20210917221008 98 84 1.0 3.0 0.00 0.00 0.00 43 1012.5
20210917220602 97 168 1.0 2.0 0.00 0.00 0.00 42 1013.2
20210917220508 98 94 1.0 2.0 0.00 0.00 0.00 43 1012.5
20210917220130 96 158 0.0 3.0 0.00 0.00 0.00 46 1013.3
20210917220007 97 340 1.0 3.0 0.00 0.00 0.00 45 1012.5
20210917215551 95 188 1.0 3.0 0.00 0.00 0.00 46 1013.3
20210917215507 96 8 2.0 3.0 0.00 0.00 0.00 44 1012.4
20210917215056 95 316 1.0 5.0 0.00 0.00 0.00 44 1013.6
20210917215008 95 31 2.0 5.0 0.00 0.00 0.00 45 1012.5
20210917214629 95 45 2.0 6.0 0.00 0.00 0.00 44 1013.4
20210917214507 96 57 2.0 6.0 0.00 0.00 0.00 45 1012.5
20210917214052 96 51 2.0 8.0 0.00 0.00 0.00 45 1013.4
20210917214009 96 69 2.0 8.0 0.00 0.00 0.00 46 1012.6
20210917213550 96 66 2.0 8.0 0.00 0.00 0.00 45 1013.4
20210917213508 96 60 2.0 8.0 0.00 0.00 0.00 45 1012.6
20210917213235 96 70 2.0 5.0 0.00 0.00 0.00 45 1013.5
20210917213008 96 73 2.0 5.0 0.00 0.00 0.00 46 1012.6
20210917212552 96 86 2.0 5.0 0.00 0.00 0.00 45 1013.4
20210917212508 96 103 2.0 5.0 0.00 0.00 0.00 46 1012.6
20210917212107 96 45 1.0 5.0 0.00 0.00 0.00 45 1013.5
20210917212008 96 143 2.0 5.0 0.00 0.00 0.00 46 1012.6
20210917211715 96 245 1.0 5.0 0.00 0.00 0.00 44 1013.5
20210917211508 96 84 2.0 5.0 0.00 0.00 0.00 46 1012.7
20210917211055 96 84 2.0 5.0 0.00 0.00 0.00 44 1013.5
20210917211008 96 85 2.0 5.0 0.00 0.00 0.00 44 1012.7
20210917210552 96 89 1.0 5.0 0.00 0.00 0.00 44 1013.6
20210917210508 96 66 2.0 5.0 0.00 0.00 0.00 45 1012.8
20210917210137 96 63 2.0 6.0 0.00 0.00 0.00 44 1013.6
20210917210008 96 29 2.0 6.0 0.00 0.00 0.00 47 1012.8
20210917205625 96 317 2.0 6.0 0.00 0.00 0.00 45 1013.7
20210917205508 96 49 2.0 6.0 0.00 0.00 0.00 46 1012.7
20210917205053 96 316 3.0 6.0 0.00 0.00 0.00 45 1013.6
20210917205008 97 67 2.0 6.0 0.00 0.00 0.00 45 1012.8
20210917204705 96 49 2.0 5.0 0.00 0.00 0.00 47 1013.6
20210917204508 96 154 2.0 5.0 0.00 0.00 0.00 48 1012.8
20210917204102 95 240 2.0 5.0 0.00 0.00 0.00 48 1013.6
20210917204008 95 205 1.0 5.0 0.00 0.00 0.00 49 1012.8
20210917203603 95 232 1.0 4.0 0.00 0.00 0.00 47 1013.6
20210917203508 95 179 1.0 4.0 0.00 0.00 0.00 48 1012.9
20210917203225 95 208 0.0 4.0 0.00 0.00 0.00 48 1013.7
20210917203008 95 108 1.0 4.0 0.00 0.00 0.00 48 1012.9
20210917202552 95 76 1.0 3.0 0.00 0.00 0.00 47 1013.8
20210917202509 96 100 1.0 3.0 0.00 0.00 0.00 49 1013.0
20210917202051 95 198 1.0 4.0 0.00 0.00 0.00 47 1013.8
20210917202008 96 46 2.0 4.0 0.00 0.00 0.00 50 1013.0
20210917201628 95 51 1.0 5.0 0.00 0.00 0.00 48 1013.9
20210917201508 95 40 2.0 5.0 0.00 0.00 0.00 48 1013.2
20210917201059 95 48 2.0 6.0 0.00 0.00 0.00 47 1013.9
20210917201009 95 69 2.0 6.0 0.00 0.00 0.00 48 1013.2
20210917200552 94 47 2.0 6.0 0.00 0.00 0.00 49 1014.1
20210917200508 95 112 2.0 6.0 0.00 0.00 0.00 49 1013.3
20210917200302 94 159 2.0 5.0 0.00 0.00 0.00 47 1014.1
20210917200008 95 132 2.0 5.0 0.00 0.00 0.00 48 1013.3
20210917195616 94 161 2.0 5.0 0.00 0.00 0.00 48 1014.1
20210917195508 94 22 3.0 5.0 0.00 0.00 0.00 49 1013.3
20210917195103 94 333 2.0 8.0 0.00 0.00 0.00 49 1014.3
20210917195008 94 133 3.0 8.0 0.00 0.00 0.00 50 1013.5
20210917194626 93 130 5.0 8.0 0.00 0.00 0.00 52 1014.3
20210917194509 93 168 3.0 8.0 0.00 0.00 0.00 51 1013.5
20210917194051 92 160 3.0 5.0 0.00 0.00 0.00 53 1014.4
20210917194009 92 178 3.0 5.0 0.00 0.00 0.00 53 1013.7
20210917193555 91 202 2.0 7.0 0.00 0.00 0.00 54 1014.4
20210917193509 91 149 2.0 7.0 0.00 0.00 0.00 54 1013.6
20210917193144 91 165 4.0 7.0 0.00 0.00 0.00 52 1014.6
20210917193009 92 143 2.0 7.0 0.00 0.00 0.00 53 1013.7
20210917192550 92 297 1.0 5.0 0.00 0.00 0.00 52 1014.6
20210917192508 92 176 2.0 5.0 0.00 0.00 0.00 53 1013.8
20210917192114 92 187 3.0 5.0 0.00 0.00 0.00 52 1014.5
20210917192008 93 109 3.0 5.0 0.00 0.00 0.00 51 1013.8
20210917191607 93 73 1.0 11.0 0.00 0.00 0.00 51 1014.7
20210917191508 94 133 3.0 11.0 0.00 0.00 0.00 51 1013.8
20210917191051 94 21 5.0 11.0 0.00 0.00 0.00 50 1014.7
20210917191008 94 183 2.0 11.0 0.00 0.00 0.00 51 1013.9
20210917190554 94 70 2.0 6.0 0.00 0.00 0.00 51 1014.7
20210917190508 94 198 2.0 6.0 0.00 0.00 0.00 53 1013.9
20210917190209 93 217 3.0 6.0 0.00 0.00 0.00 51 1014.9
20210917190008 94 200 2.0 6.0 0.00 0.00 0.00 51 1014.1
20210917185555 93 248 1.0 4.0 0.00 0.00 0.00 52 1014.9
20210917185508 94 140 2.0 4.0 0.00 0.00 0.00 53 1014.2
20210917185053 93 79 2.0 5.0 0.00 0.00 0.00 52 1015.2
20210917185008 93 140 3.0 5.0 0.00 0.00 0.00 52 1014.3
20210917184713 93 195 2.0 5.0 0.00 0.00 0.00 54 1015.1
20210917184508 93 176 3.0 5.0 0.00 0.00 0.00 54 1014.3
20210917184138 92 151 3.0 5.0 0.00 0.00 0.00 54 1015.3
20210917184007 92 219 2.0 5.0 0.00 0.00 0.00 54 1014.4
20210917183550 92 235 2.0 5.0 0.00 0.00 0.00 54 1015.3
20210917183508 92 213 2.0 5.0 0.00 0.00 0.00 55 1014.3
20210917183128 92 297 1.0 6.0 0.00 0.00 0.00 53 1015.3
20210917183008 92 105 2.0 6.0 0.00 0.00 0.00 54 1014.4
20210917182550 91 153 2.0 8.0 0.00 0.00 0.00 55 1015.3
20210917182508 92 88 2.0 8.0 0.00 0.00 0.00 55 1014.4
20210917182053 92 124 3.0 8.0 0.00 0.00 0.00 54 1015.3
20210917182008 92 92 1.0 8.0 0.00 0.00 0.00 54 1014.5
20210917181649 92 140 2.0 4.0 0.00 0.00 0.00 54 1015.3
20210917181508 93 84 1.0 4.0 0.00 0.00 0.00 56 1014.5
20210917181056 92 72 1.0 4.0 0.00 0.00 0.00 56 1015.4
20210917181008 92 78 2.0 4.0 0.00 0.00 0.00 55 1014.6
20210917180559 91 49 1.0 5.0 0.00 0.00 0.00 56 1015.5
20210917180508 92 94 2.0 5.0 0.00 0.00 0.00 57 1014.6
20210917180124 91 128 2.0 5.0 0.00 0.00 0.00 56 1015.6
20210917180008 91 124 3.0 5.0 0.00 0.00 0.00 57 1014.6
20210917175555 90 159 2.0 7.0 0.00 0.00 0.00 57 1015.6
20210917175508 90 151 4.0 7.0 0.00 0.00 0.00 59 1014.7
20210917175053 90 129 4.0 7.0 0.00 0.00 0.00 58 1015.7
20210917175008 90 152 4.0 7.0 0.00 0.00 0.00 58 1014.7
20210917174636 90 170 4.0 7.0 0.00 0.00 0.00 59 1015.7
20210917174508 90 135 4.0 7.0 0.00 0.00 0.00 60 1014.9
20210917174052 89 182 4.0 6.0 0.00 0.00 0.00 58 1015.8
20210917174008 90 136 4.0 6.0 0.00 0.00 0.00 58 1014.9
20210917173552 89 144 4.0 9.0 0.00 0.00 0.00 59 1015.9
20210917173508 89 157 3.0 9.0 0.00 0.00 0.00 59 1014.9
20210917173126 89 107 5.0 9.0 0.00 0.00 0.00 59 1015.9
20210917173008 89 155 2.0 9.0 0.00 0.00 0.00 60 1014.9
20210917172558 89 148 3.0 6.0 0.00 0.00 0.00 59 1015.8
20210917172508 89 116 2.0 6.0 0.00 0.00 0.00 59 1015.0
20210917172049 89 162 1.0 9.0 0.00 0.00 0.00 61 1016.0
20210917172008 89 98 3.0 9.0 0.00 0.00 0.00 60 1015.0
20210917171628 88 108 3.0 9.0 0.00 0.00 0.00 60 1015.9
20210917171508 89 137 3.0 9.0 0.00 0.00 0.00 60 1015.1
20210917171051 88 181 3.0 6.0 0.00 0.00 0.00 61 1016.0
20210917171008 89 158 2.0 6.0 0.00 0.00 0.00 62 1015.1
20210917170550 88 147 3.0 6.0 0.00 0.00 0.00 61 1016.1
20210917170508 89 157 2.0 6.0 0.00 0.00 0.00 62 1015.1
20210917170053 88 129 2.0 6.0 0.00 0.00 0.00 62 1016.0
20210917170008 88 155 2.0 6.0 0.00 0.00 0.00 63 1015.1
20210917165602 87 239 2.0 5.0 0.00 0.00 0.00 62 1016.0
20210917165508 88 185 1.0 5.0 0.00 0.00 0.00 62 1015.1
20210917165054 87 155 2.0 4.0 0.00 0.00 0.00 63 1016.1
20210917165008 88 257 1.0 4.0 0.00 0.00 0.00 64 1015.2
20210917164637 87 187 2.0 4.0 0.00 0.00 0.00 64 1016.1
20210917164508 87 26 2.0 4.0 0.00 0.00 0.00 65 1015.3
20210917164049 87 114 1.0 5.0 0.00 0.00 0.00 67 1016.2
20210917164008 87 163 2.0 3.0 0.00 0.00 0.00 66 1015.3
20210917163554 86 167 1.0 5.0 0.00 0.00 0.00 65 1016.2
20210917163508 87 205 2.0 4.0 0.00 0.00 0.00 65 1015.4
20210917163222 86 172 2.0 6.0 0.00 0.00 0.00 65 1016.3
20210917163008 87 197 1.0 6.0 0.00 0.00 0.00 67 1015.4
20210917162552 86 201 2.0 6.0 0.00 0.00 0.00 66 1016.3
20210917162508 86 185 2.0 6.0 0.00 0.00 0.00 66 1015.5
20210917162053 86 189 1.0 4.0 0.00 0.00 0.00 68 1016.4
20210917162008 86 222 2.0 4.0 0.00 0.00 0.00 68 1015.5
20210917161712 85 245 2.0 5.0 0.00 0.00 0.00 66 1016.5
20210917161508 86 254 1.0 5.0 0.00 0.00 0.00 67 1015.6
20210917161112 85 219 1.0 5.0 0.00 0.00 0.00 69 1016.4
20210917161008 86 250 1.0 5.0 0.00 0.00 0.00 70 1015.5
20210917160552 85 20 2.0 3.0 0.00 0.00 0.00 70 1016.5
20210917160508 85 220 1.0 3.0 0.00 0.00 0.00 72 1015.5
20210917160117 84 248 0.0 4.0 0.00 0.00 0.00 71 1016.4
20210917160007 84 210 1.0 4.0 0.00 0.00 0.00 71 1015.5
20210917155552 84 172 1.0 4.0 0.00 0.00 0.00 70 1016.4
20210917155508 85 229 1.0 4.0 0.00 0.00 0.00 71 1015.6
20210917155053 84 234 1.0 4.0 0.00 0.00 0.00 72 1016.4
20210917155008 84 244 1.0 4.0 0.00 0.00 0.00 72 1015.5
20210917154714 83 231 1.0 4.0 0.00 0.00 0.00 72 1016.4
20210917154508 84 246 1.0 4.0 0.00 0.00 0.00 73 1015.5
20210917154051 83 269 1.0 4.0 0.00 0.00 0.00 72 1016.4
20210917154008 84 247 2.0 4.0 0.00 0.00 0.00 73 1015.5
20210917153552 83 96 1.0 5.0 0.00 0.00 0.00 73 1016.5
20210917153508 83 221 2.0 5.0 0.00 0.00 0.00 74 1015.6
20210917153140 82 252 1.0 6.0 0.00 0.00 0.00 74 1016.5
20210917153008 83 193 2.0 6.0 0.00 0.00 0.00 74 1015.6
20210917152552 82 129 3.0 6.0 0.00 0.00 0.00 75 1016.5
20210917152507 82 166 2.0 6.0 0.00 0.00 0.00 75 1015.6
20210917152054 82 214 2.0 5.0 0.00 0.00 0.00 75 1016.3
20210917152007 82 161 2.0 5.0 0.00 0.00 0.00 75 1015.5
20210917151635 82 131 2.0 6.0 0.00 0.00 0.00 76 1016.3
20210917151507 82 183 2.0 6.0 0.00 0.00 0.00 76 1015.4
20210917151103 81 233 1.0 6.0 0.00 0.00 0.00 76 1016.4
20210917151008 82 168 1.0 6.0 0.00 0.00 0.00 77 1015.5
20210917150556 81 179 2.0 4.0 0.00 0.00 0.00 76 1016.3
20210917150508 82 185 1.0 4.0 0.00 0.00 0.00 77 1015.4
20210917150148 81 249 1.0 3.0 0.00 0.00 0.00 78 1016.3
20210917150008 81 216 2.0 3.0 0.00 0.00 0.00 79 1015.4
20210917145558 80 235 2.0 5.0 0.00 0.00 0.00 79 1016.3
20210917145508 80 203 2.0 5.0 0.00 0.00 0.00 79 1015.4
20210917145053 80 225 2.0 5.0 0.00 0.00 0.00 79 1016.3
20210917145008 80 203 2.0 5.0 0.00 0.00 0.00 79 1015.3
20210917144640 79 243 2.0 5.0 0.00 0.00 0.00 81 1016.1
20210917144508 80 187 2.0 5.0 0.00 0.00 0.00 82 1015.3
20210917144059 79 250 3.0 5.0 0.00 0.00 0.00 81 1016.1
20210917144007 79 177 2.0 5.0 0.00 0.00 0.00 82 1015.3
20210917143552 78 221 2.0 6.0 0.00 0.00 0.00 83 1016.2
20210917143508 78 193 2.0 6.0 0.00 0.00 0.00 83 1015.3
20210917143105 78 161 3.0 6.0 0.00 0.00 0.00 83 1016.1
20210917143007 78 188 2.0 6.0 0.00 0.00 0.00 84 1015.3
20210917142554 77 242 2.0 5.0 0.00 0.00 0.00 85 1016.1
20210917142509 77 165 2.0 5.0 0.00 0.00 0.00 86 1015.3
20210917142053 76 153 2.0 5.0 0.00 0.00 0.00 86 1016.1
20210917142008 77 165 1.0 5.0 0.00 0.00 0.00 86 1015.2
20210917141644 76 145 2.0 4.0 0.00 0.00 0.00 87 1016.0
20210917141508 76 184 1.0 4.0 0.00 0.00 0.00 88 1015.2
20210917141054 75 199 1.0 4.0 0.00 0.00 0.00 89 1016.0
20210917141008 76 194 1.0 4.0 0.00 0.00 0.00 90 1015.2
20210917140551 75 191 1.0 3.0 0.00 0.00 0.00 91 1016.1
20210917140508 75 189 0.0 3.0 0.00 0.00 0.00 92 1015.2
20210917140144 74 114 1.0 2.0 0.00 0.00 0.00 93 1016.0
20210917140007 75 183 0.0 2.0 0.00 0.00 0.00 94 1015.2
20210917135552 74 214 0.0 2.0 0.00 0.00 0.00 94 1016.1
20210917135508 74 174 1.0 2.0 0.00 0.00 0.00 94 1015.2
20210917135108 73 152 0.0 2.0 0.00 0.00 0.00 96 1016.0
20210917135008 74 188 1.0 2.0 0.00 0.00 0.00 96 1015.1
20210917134743 72 160 0.0 2.0 0.00 0.00 0.00 96 1016.0
20210917134508 73 182 1.0 2.0 0.00 0.00 0.00 96 1015.0
20210917134053 72 211 1.0 2.0 0.00 0.00 0.00 96 1015.9
20210917134007 72 154 0.0 2.0 0.00 0.00 0.00 97 1014.9
20210917133552 71 193 0.0 1.0 0.00 0.00 0.00 96 1015.7
20210917133507 72 0 0.0 1.0 0.00 0.00 0.00 97 1014.9
20210917133332 71 127 0.0 1.0 0.00 0.00 0.00 97 1015.8
20210917133008 71 0 0.0 1.0 0.00 0.00 0.00 97 1014.9
20210917132601 70 129 0.0 1.0 0.00 0.00 0.00 96 1015.7
20210917132507 70 0 0.0 1.0 0.00 0.00 0.00 97 1014.8
20210917132054 69 0 0.0 0.0 0.00 0.00 0.00 96 1015.7
20210917132008 69 0 0.0 0.0 0.00 0.00 0.00 97 1014.8
20210917131624 68 0 0.0 0.0 0.00 0.00 0.00 96 1015.6
20210917131508 69 0 0.0 0.0 0.00 0.00 0.00 97 1014.7
20210917131052 68 0 0.0 0.0 0.00 0.00 0.00 96 1015.5
20210917131008 68 0 0.0 0.0 0.00 0.00 0.00 97 1014.7
20210917130558 67 0 0.0 0.0 0.00 0.00 0.00 96 1015.5
20210917130508 68 0 0.0 0.0 0.00 0.00 0.00 96 1014.7
20210917130136 67 0 0.0 0.0 0.00 0.00 0.00 96 1015.4
20210917130008 67 0 0.0 0.0 0.00 0.00 0.00 96 1014.5
20210917125553 66 0 0.0 0.0 0.00 0.00 0.00 96 1015.3
20210917125508 67 0 0.0 0.0 0.00 0.00 0.00 96 1014.6
20210917125053 66 0 0.0 0.0 0.00 0.00 0.00 95 1015.3
20210917125008 67 0 0.0 0.0 0.00 0.00 0.00 96 1014.4
20210917124818 66 0 0.0 0.0 0.00 0.00 0.00 95 1015.3
20210917124508 67 0 0.0 0.0 0.00 0.00 0.00 96 1014.3
20210917124126 66 0 0.0 0.0 0.00 0.00 0.00 95 1015.2
20210917124008 67 0 0.0 0.0 0.00 0.00 0.00 96 1014.3
20210917123600 66 0 0.0 0.0 0.00 0.00 0.00 95 1015.0
20210917123508 67 0 0.0 0.0 0.00 0.00 0.00 96 1014.2
20210917123125 66 0 0.0 0.0 0.00 0.00 0.00 95 1015.0
20210917123008 67 0 0.0 0.0 0.00 0.00 0.00 96 1014.1
20210917122554 67 0 0.0 0.0 0.00 0.00 0.00 95 1014.8
20210917122508 67 0 0.0 0.0 0.00 0.00 0.00 96 1014.0
20210917122053 67 0 0.0 0.0 0.00 0.00 0.00 95 1014.8
20210917122008 67 0 0.0 0.0 0.00 0.00 0.00 96 1013.9
20210917121656 67 0 0.0 0.0 0.00 0.00 0.00 95 1014.7
20210917121508 67 0 0.0 0.0 0.00 0.00 0.00 96 1013.8
20210917121109 66 0 0.0 0.0 0.00 0.00 0.00 95 1014.7
20210917121007 67 0 0.0 0.0 0.00 0.00 0.00 96 1013.7
20210917120554 67 0 0.0 0.0 0.00 0.00 0.00 95 1014.5
20210917120509 67 0 0.0 0.0 0.00 0.00 0.00 95 1013.7
20210917120149 67 0 0.0 0.0 0.00 0.00 0.00 95 1014.5
20210917120007 67 0 0.0 0.0 0.00 0.00 0.00 96 1013.7
20210917115553 67 0 0.0 0.0 0.00 0.00 0.00 95 1014.6
20210917115507 67 0 0.0 0.0 0.00 0.00 0.00 96 1013.7
20210917115055 67 0 0.0 0.0 0.00 0.00 0.00 95 1014.5
20210917115008 67 0 0.0 0.0 0.00 0.00 0.00 96 1013.6
20210917114630 67 0 0.0 0.0 0.00 0.00 0.00 95 1014.4
20210917114508 67 0 0.0 0.0 0.00 0.00 0.00 96 1013.5
20210917114107 66 0 0.0 0.0 0.00 0.00 0.00 95 1014.4
20210917114008 67 0 0.0 0.0 0.00 0.00 0.00 96 1013.5
20210917113557 66 0 0.0 0.0 0.00 0.00 0.00 94 1014.3
20210917113508 67 0 0.0 0.0 0.00 0.00 0.00 95 1013.5
20210917113145 67 0 0.0 0.0 0.00 0.00 0.00 94 1014.3
20210917113008 67 0 0.0 0.0 0.00 0.00 0.00 95 1013.4
20210917112551 67 0 0.0 0.0 0.00 0.00 0.00 94 1014.2
20210917112508 67 0 0.0 0.0 0.00 0.00 0.00 95 1013.4
20210917112053 67 0 0.0 0.0 0.00 0.00 0.00 95 1014.3
20210917112008 68 0 0.0 0.0 0.00 0.00 0.00 95 1013.3
20210917111657 67 0 0.0 0.0 0.00 0.00 0.00 95 1014.2
20210917111508 68 0 0.0 0.0 0.00 0.00 0.00 95 1013.3
20210917111100 67 0 0.0 0.0 0.00 0.00 0.00 95 1014.2
20210917111008 68 0 0.0 0.0 0.00 0.00 0.00 95 1013.3
20210917110554 67 0 0.0 0.0 0.00 0.00 0.00 95 1014.2
20210917110508 68 0 0.0 0.0 0.00 0.00 0.00 95 1013.3
20210917110152 68 0 0.0 0.0 0.00 0.00 0.00 94 1014.1
20210917110008 68 0 0.0 0.0 0.00 0.00 0.00 95 1013.2
20210917105614 68 0 0.0 0.0 0.00 0.00 0.00 94 1014.2
20210917105508 68 0 0.0 0.0 0.00 0.00 0.00 95 1013.3
20210917105126 68 0 0.0 0.0 0.00 0.00 0.00 94 1014.1
20210917105008 68 0 0.0 0.0 0.00 0.00 0.00 95 1013.2
20210917104629 68 0 0.0 0.0 0.00 0.00 0.00 94 1014.0
20210917104508 68 0 0.0 0.0 0.00 0.00 0.00 95 1013.1
20210917104052 68 0 0.0 0.0 0.00 0.00 0.00 94 1013.9
20210917104008 69 0 0.0 0.0 0.00 0.00 0.00 95 1013.0
20210917103551 68 0 0.0 0.0 0.00 0.00 0.00 95 1013.9
20210917103508 69 0 0.0 0.0 0.00 0.00 0.00 95 1013.0
20210917103106 68 0 0.0 0.0 0.00 0.00 0.00 95 1013.9
20210917103007 69 0 0.0 0.0 0.00 0.00 0.00 95 1013.0
20210917102555 68 0 0.0 0.0 0.00 0.00 0.00 95 1013.9
20210917102507 69 0 0.0 0.0 0.00 0.00 0.00 95 1013.0
20210917102101 68 0 0.0 0.0 0.00 0.00 0.00 94 1013.9
20210917102008 69 0 0.0 0.0 0.00 0.00 0.00 95 1013.0
20210917101655 68 0 0.0 0.0 0.00 0.00 0.00 94 1013.8
20210917101508 69 0 0.0 0.0 0.00 0.00 0.00 95 1013.1
20210917101052 69 0 0.0 0.0 0.00 0.00 0.00 94 1013.9
20210917101008 69 0 0.0 0.0 0.00 0.00 0.00 95 1013.0
20210917100551 69 0 0.0 0.0 0.00 0.00 0.00 94 1013.8
20210917100508 69 0 0.0 0.0 0.00 0.00 0.00 95 1012.9
20210917100105 69 0 0.0 0.0 0.00 0.00 0.00 94 1013.7
20210917100008 69 0 0.0 0.0 0.00 0.00 0.00 95 1012.9
20210917095552 69 0 0.0 0.0 0.00 0.00 0.00 94 1013.7
20210917095508 69 0 0.0 0.0 0.00 0.00 0.00 95 1012.9
20210917095052 69 0 0.0 0.0 0.00 0.00 0.00 94 1013.8
20210917095007 69 0 0.0 0.0 0.00 0.00 0.00 95 1012.8
20210917094646 68 0 0.0 0.0 0.00 0.00 0.00 93 1013.6
20210917094507 69 0 0.0 0.0 0.00 0.00 0.00 94 1012.8
20210917094053 69 0 0.0 0.0 0.00 0.00 0.00 93 1013.5
20210917094008 69 0 0.0 0.0 0.00 0.00 0.00 94 1012.7
20210917093611 69 0 0.0 0.0 0.00 0.00 0.00 94 1013.6
20210917093507 69 0 0.0 0.0 0.00 0.00 0.00 94 1012.8
20210917093110 69 0 0.0 0.0 0.00 0.00 0.00 94 1013.7
20210917093008 69 0 0.0 0.0 0.00 0.00 0.00 94 1012.9
20210917092553 69 0 0.0 0.0 0.00 0.00 0.00 94 1013.7
20210917092508 69 0 0.0 0.0 0.00 0.00 0.00 94 1012.8
20210917092057 69 0 0.0 0.0 0.00 0.00 0.00 93 1013.6
20210917092008 69 0 0.0 0.0 0.00 0.00 0.00 94 1012.7
20210917091713 69 0 0.0 0.0 0.00 0.00 0.00 93 1013.5
20210917091508 69 0 0.0 0.0 0.00 0.00 0.00 94 1012.8
20210917091051 69 0 0.0 0.0 0.00 0.00 0.00 93 1013.6
20210917091008 69 0 0.0 0.0 0.00 0.00 0.00 94 1012.7
20210917090552 69 0 0.0 0.0 0.00 0.00 0.00 94 1013.5
20210917090508 69 0 0.0 0.0 0.00 0.00 0.00 94 1012.8
20210917090207 69 0 0.0 0.0 0.00 0.00 0.00 93 1013.6
20210917090007 69 0 0.0 0.0 0.00 0.00 0.00 94 1012.8
20210917085557 69 0 0.0 0.0 0.00 0.00 0.00 93 1013.5
20210917085507 69 0 0.0 0.0 0.00 0.00 0.00 94 1012.8
20210917085051 69 0 0.0 0.0 0.00 0.00 0.00 93 1013.6
20210917085008 69 0 0.0 0.0 0.00 0.00 0.00 94 1012.8
20210917084726 68 0 0.0 0.0 0.00 0.00 0.00 93 1013.6
20210917084508 69 0 0.0 0.0 0.00 0.00 0.00 93 1012.7
20210917084053 68 0 0.0 0.0 0.00 0.00 0.00 93 1013.7
20210917084008 69 0 0.0 0.0 0.00 0.00 0.00 93 1012.8
20210917083553 68 0 0.0 0.0 0.00 0.00 0.00 93 1013.5
20210917083508 69 0 0.0 0.0 0.00 0.00 0.00 93 1012.8
20210917083119 69 0 0.0 0.0 0.00 0.00 0.00 93 1013.6
20210917083008 69 0 0.0 0.0 0.00 0.00 0.00 93 1012.8
20210917082552 69 0 0.0 0.0 0.00 0.00 0.00 93 1013.6
20210917082508 69 0 0.0 0.0 0.00 0.00 0.00 93 1012.7
20210917082051 69 0 0.0 0.0 0.00 0.00 0.00 92 1013.7
20210917082008 69 0 0.0 0.0 0.00 0.00 0.00 93 1012.8
20210917081642 68 0 0.0 0.0 0.00 0.00 0.00 92 1013.7
20210917081508 69 0 0.0 0.0 0.00 0.00 0.00 92 1012.8
20210917081059 68 0 0.0 0.0 0.00 0.00 0.00 92 1013.6
20210917081007 69 0 0.0 0.0 0.00 0.00 0.00 92 1012.7
20210917080552 68 0 0.0 0.0 0.00 0.00 0.00 92 1013.7
20210917080507 68 0 0.0 0.0 0.00 0.00 0.00 92 1012.7
20210917080120 68 0 0.0 0.0 0.00 0.00 0.00 90 1013.5
20210917080007 68 0 0.0 0.0 0.00 0.00 0.00 91 1012.7
20210917075604 68 0 0.0 0.0 0.00 0.00 0.00 90 1013.6
20210917075508 69 0 0.0 0.0 0.00 0.00 0.00 91 1012.8
20210917075058 69 0 0.0 0.0 0.00 0.00 0.00 90 1013.6
20210917075008 69 0 0.0 0.0 0.00 0.00 0.00 91 1012.8
20210917074633 69 0 0.0 0.0 0.00 0.00 0.00 90 1013.5
20210917074507 69 0 0.0 0.0 0.00 0.00 0.00 90 1012.8
20210917074054 69 0 0.0 0.0 0.00 0.00 0.00 90 1013.4
20210917074007 70 0 0.0 0.0 0.00 0.00 0.00 91 1012.7
20210917073609 69 0 0.0 0.0 0.00 0.00 0.00 90 1013.6
20210917073508 70 0 0.0 0.0 0.00 0.00 0.00 91 1012.8
20210917073137 70 0 0.0 0.0 0.00 0.00 0.00 90 1013.6
20210917073008 70 0 0.0 0.0 0.00 0.00 0.00 91 1012.7
20210917072553 70 0 0.0 0.0 0.00 0.00 0.00 90 1013.7
20210917072508 70 0 0.0 0.0 0.00 0.00 0.00 90 1012.9
20210917072107 70 0 0.0 0.0 0.00 0.00 0.00 89 1013.6
20210917072008 70 0 0.0 0.0 0.00 0.00 0.00 90 1012.8
20210917071627 70 0 0.0 0.0 0.00 0.00 0.00 89 1013.5
20210917071508 70 0 0.0 0.0 0.00 0.00 0.00 89 1012.8
20210917071053 70 0 0.0 0.0 0.00 0.00 0.00 89 1013.7
20210917071008 71 0 0.0 0.0 0.00 0.00 0.00 89 1012.7
20210917070552 70 0 0.0 0.0 0.00 0.00 0.00 89 1013.6
20210917070508 71 0 0.0 0.0 0.00 0.00 0.00 89 1012.8
20210917070149 71 0 0.0 0.0 0.00 0.00 0.00 89 1013.7
20210917070007 71 0 0.0 0.0 0.00 0.00 0.00 89 1012.8
20210917065555 71 0 0.0 0.0 0.00 0.00 0.00 88 1013.6
20210917065507 71 0 0.0 0.0 0.00 0.00 0.00 89 1012.7
20210917065050 71 0 0.0 0.0 0.00 0.00 0.00 88 1013.6
20210917065008 71 0 0.0 0.0 0.00 0.00 0.00 89 1012.8
20210917064608 71 0 0.0 0.0 0.00 0.00 0.00 88 1013.6
20210917064508 71 0 0.0 0.0 0.00 0.00 0.00 88 1012.8
20210917064106 71 0 0.0 0.0 0.00 0.00 0.00 87 1013.8
20210917064008 71 0 0.0 0.0 0.00 0.00 0.00 88 1012.9
20210917063600 71 0 0.0 0.0 0.00 0.00 0.00 87 1013.7
20210917063508 72 0 0.0 0.0 0.00 0.00 0.00 87 1012.9
20210917063157 71 0 0.0 0.0 0.00 0.00 0.00 86 1013.7
20210917063008 72 0 0.0 0.0 0.00 0.00 0.00 87 1012.9
20210917062553 72 0 0.0 0.0 0.00 0.00 0.00 86 1013.8
20210917062508 72 0 0.0 0.0 0.00 0.00 0.00 86 1013.0
20210917062103 72 0 0.0 0.0 0.00 0.00 0.00 86 1013.7
20210917062008 72 0 0.0 0.0 0.00 0.00 0.00 86 1012.9
20210917061647 72 0 0.0 0.0 0.00 0.00 0.00 85 1013.7
20210917061508 72 0 0.0 0.0 0.00 0.00 0.00 86 1013.0
20210917061053 72 0 0.0 1.0 0.00 0.00 0.00 85 1013.8
20210917061007 73 0 0.0 1.0 0.00 0.00 0.00 85 1013.0
20210917060614 72 0 0.0 1.0 0.00 0.00 0.00 85 1013.8
20210917060507 73 0 0.0 1.0 0.00 0.00 0.00 85 1012.9
20210917060115 73 0 0.0 0.0 0.00 0.00 0.00 84 1013.8
20210917060007 73 0 0.0 0.0 0.00 0.00 0.00 85 1012.9
20210917055603 73 0 0.0 1.0 0.00 0.00 0.00 83 1013.7
20210917055507 73 0 0.0 1.0 0.00 0.00 0.00 84 1012.9
20210917055054 73 0 0.0 1.0 0.00 0.00 0.00 84 1013.7
20210917055007 73 0 0.0 1.0 0.00 0.00 0.00 84 1012.9
20210917054655 73 0 0.0 0.0 0.00 0.00 0.00 83 1013.8
20210917054507 73 0 0.0 0.0 0.00 0.00 0.00 83 1013.0
20210917054053 73 0 0.0 0.0 0.00 0.00 0.00 82 1013.8
20210917054008 74 0 0.0 0.0 0.00 0.00 0.00 83 1013.0
20210917053552 74 0 0.0 0.0 0.00 0.00 0.00 81 1013.9
20210917053508 74 0 0.0 0.0 0.00 0.00 0.00 82 1012.9
20210917053151 74 0 0.0 0.0 0.00 0.00 0.00 80 1013.8
20210917053008 74 0 0.0 0.0 0.00 0.00 0.00 81 1012.9
20210917052551 74 0 0.0 0.0 0.00 0.00 0.00 80 1013.8
20210917052508 75 0 0.0 0.0 0.00 0.00 0.00 80 1012.9
20210917052059 74 0 0.0 2.0 0.00 0.00 0.00 80 1013.7
20210917052008 75 142 1.0 2.0 0.00 0.00 0.00 80 1012.9
20210917051636 75 150 0.0 3.0 0.00 0.00 0.00 79 1013.7
20210917051508 75 136 1.0 3.0 0.00 0.00 0.00 80 1012.8
20210917051053 75 122 1.0 3.0 0.00 0.00 0.00 79 1013.7
20210917051008 75 128 1.0 3.0 0.00 0.00 0.00 80 1012.8
20210917050552 75 116 1.0 3.0 0.00 0.00 0.00 79 1013.7
20210917050508 76 130 1.0 3.0 0.00 0.00 0.00 80 1012.8
20210917050131 75 127 1.0 3.0 0.00 0.00 0.00 79 1013.7
20210917050010 76 136 1.0 3.0 0.00 0.00 0.00 79 1012.9
20210917045603 75 131 1.0 3.0 0.00 0.00 0.00 78 1013.6
20210917045508 76 137 1.0 3.0 0.00 0.00 0.00 79 1012.8
20210917045053 76 141 1.0 3.0 0.00 0.00 0.00 78 1013.6
20210917045008 76 137 1.0 3.0 0.00 0.00 0.00 78 1012.8
20210917044814 76 141 1.0 3.0 0.00 0.00 0.00 77 1013.7
20210917044508 76 136 2.0 3.0 0.00 0.00 0.00 78 1012.8
20210917044108 76 136 2.0 3.0 0.00 0.00 0.00 77 1013.7
20210917044008 76 131 2.0 3.0 0.00 0.00 0.00 77 1012.8
20210917043551 76 138 2.0 4.0 0.00 0.00 0.00 77 1013.6
20210917043508 77 131 2.0 4.0 0.00 0.00 0.00 77 1012.8
20210917043227 76 131 1.0 4.0 0.00 0.00 0.00 76 1013.6
20210917043007 77 133 2.0 4.0 0.00 0.00 0.00 77 1012.8
20210917042553 77 136 2.0 4.0 0.00 0.00 0.00 76 1013.6
20210917042507 77 133 2.0 4.0 0.00 0.00 0.00 77 1012.8
20210917042053 77 103 2.0 5.0 0.00 0.00 0.00 76 1013.6
20210917042008 77 135 2.0 5.0 0.00 0.00 0.00 76 1012.8
20210917041714 77 138 2.0 5.0 0.00 0.00 0.00 75 1013.6
20210917041507 77 131 2.0 5.0 0.00 0.00 0.00 76 1012.7
20210917041053 77 133 2.0 5.0 0.00 0.00 0.00 75 1013.6
20210917041008 78 135 2.0 5.0 0.00 0.00 0.00 75 1012.7
20210917040553 77 153 2.0 5.0 0.00 0.00 0.00 74 1013.5
20210917040507 78 141 3.0 5.0 0.00 0.00 0.00 75 1012.7
20210917040314 78 156 2.0 7.0 0.00 0.00 0.00 74 1013.4
20210917040007 78 133 3.0 7.0 0.00 0.00 0.00 74 1012.7
20210917035559 78 127 3.0 7.0 0.00 0.00 0.00 73 1013.4
20210917035507 78 128 2.0 7.0 0.00 0.00 0.00 74 1012.6
20210917035056 78 124 2.0 5.0 0.00 0.00 0.00 73 1013.5
20210917035007 78 120 2.0 5.0 0.00 0.00 0.00 73 1012.7
20210917034632 78 146 1.0 5.0 0.00 0.00 0.00 72 1013.4
20210917034507 79 117 2.0 5.0 0.00 0.00 0.00 73 1012.7
20210917034052 78 124 2.0 5.0 0.00 0.00 0.00 72 1013.4
20210917034007 79 126 1.0 5.0 0.00 0.00 0.00 72 1012.6
20210917033551 78 124 2.0 5.0 0.00 0.00 0.00 71 1013.4
20210917033507 79 133 1.0 5.0 0.00 0.00 0.00 72 1012.6
20210917033208 78 131 1.0 3.0 0.00 0.00 0.00 71 1013.3
20210917033008 79 134 1.0 3.0 0.00 0.00 0.00 71 1012.5
20210917032553 79 139 1.0 3.0 0.00 0.00 0.00 71 1013.3
20210917032509 79 130 2.0 3.0 0.00 0.00 0.00 71 1012.4
20210917032052 79 133 1.0 3.0 0.00 0.00 0.00 70 1013.2
20210917032008 79 132 2.0 3.0 0.00 0.00 0.00 71 1012.4
20210917031633 79 108 1.0 4.0 0.00 0.00 0.00 70 1013.2
20210917031508 80 131 2.0 4.0 0.00 0.00 0.00 70 1012.4
20210917031053 79 108 2.0 5.0 0.00 0.00 0.00 70 1013.1
20210917031008 80 123 1.0 5.0 0.00 0.00 0.00 70 1012.2
20210917030553 79 120 2.0 5.0 0.00 0.00 0.00 69 1013.0
20210917030508 80 118 1.0 5.0 0.00 0.00 0.00 70 1012.2
20210917030115 80 122 1.0 4.0 0.00 0.00 0.00 69 1013.1
20210917030008 80 119 2.0 4.0 0.00 0.00 0.00 69 1012.2
20210917025633 80 135 1.0 6.0 0.00 0.00 0.00 69 1012.9
20210917025508 80 104 3.0 6.0 0.00 0.00 0.00 69 1012.2
20210917025051 80 129 3.0 6.0 0.00 0.00 0.00 68 1012.8
20210917025008 80 99 3.0 6.0 0.00 0.00 0.00 69 1012.1
20210917024729 80 96 3.0 7.0 0.00 0.00 0.00 68 1012.8
20210917024508 81 104 3.0 7.0 0.00 0.00 0.00 69 1012.1
20210917024050 80 111 3.0 7.0 0.00 0.00 0.00 68 1012.7
20210917024008 81 103 3.0 7.0 0.00 0.00 0.00 68 1011.9
20210917023607 81 112 3.0 7.0 0.00 0.00 0.00 68 1012.7
20210917023508 81 101 3.0 7.0 0.00 0.00 0.00 68 1011.8
20210917023146 81 136 3.0 7.0 0.00 0.00 0.00 67 1012.6
20210917023008 81 101 3.0 7.0 0.00 0.00 0.00 68 1011.8
20210917022554 81 119 2.0 7.0 0.00 0.00 0.00 67 1012.5
20210917022508 81 106 3.0 7.0 0.00 0.00 0.00 67 1011.7
20210917022053 81 67 2.0 6.0 0.00 0.00 0.00 66 1012.4
20210917022008 82 107 3.0 6.0 0.00 0.00 0.00 67 1011.6
20210917021713 81 88 3.0 9.0 0.00 0.00 0.00 66 1012.4
20210917021508 82 100 3.0 9.0 0.00 0.00 0.00 67 1011.5
20210917021051 81 115 2.0 9.0 0.00 0.00 0.00 66 1012.3
20210917021008 82 101 2.0 9.0 0.00 0.00 0.00 66 1011.4
20210917020550 82 119 2.0 6.0 0.00 0.00 0.00 65 1012.2
20210917020508 82 107 2.0 6.0 0.00 0.00 0.00 66 1011.4
20210917020301 82 105 2.0 6.0 0.00 0.00 0.00 65 1012.0
20210917020007 82 106 2.0 6.0 0.00 0.00 0.00 65 1011.2
20210917015553 82 91 1.0 6.0 0.00 0.00 0.00 64 1012.0
20210917015508 82 101 2.0 6.0 0.00 0.00 0.00 65 1011.1
20210917015052 82 139 2.0 6.0 0.00 0.00 0.00 64 1011.9
20210917015008 82 105 1.0 6.0 0.00 0.00 0.00 64 1011.0
20210917014619 82 115 1.0 5.0 0.00 0.00 0.00 63 1011.8
20210917014508 82 111 1.0 5.0 0.00 0.00 0.00 63 1011.0
20210917014105 82 127 1.0 5.0 0.00 0.00 0.00 62 1011.7
20210917014007 83 100 1.0 5.0 0.00 0.00 0.00 63 1010.9
20210917013551 82 120 1.0 5.0 0.00 0.00 0.00 62 1011.6
20210917013508 83 92 1.0 5.0 0.00 0.00 0.00 63 1010.8
20210917013135 82 69 0.0 5.0 0.00 0.00 0.00 62 1011.6
20210917013008 83 85 1.0 5.0 0.00 0.00 0.00 62 1010.8
20210917012552 83 94 1.0 5.0 0.00 0.00 0.00 62 1011.4
20210917012508 83 81 0.0 5.0 0.00 0.00 0.00 62 1010.6
20210917012052 83 72 0.0 2.0 0.00 0.00 0.00 62 1011.2
20210917012008 83 0 0.0 2.0 0.00 0.00 0.00 62 1010.5
20210917011722 83 139 0.0 2.0 0.00 0.00 0.00 61 1011.1
20210917011508 83 0 0.0 3.0 0.00 0.00 0.00 62 1010.4
20210917011053 83 0 0.0 3.0 0.00 0.00 0.00 61 1011.1
20210917011008 84 0 0.0 3.0 0.00 0.00 0.00 61 1010.3
20210917010552 83 0 0.0 3.0 0.00 0.00 0.00 60 1011.1
20210917010509 84 0 0.0 3.0 0.00 0.00 0.00 61 1010.4
20210917010125 84 0 0.0 1.0 0.00 0.00 0.00 59 1011.1
20210917010008 84 0 0.0 1.0 0.00 0.00 0.00 60 1010.3
20210917005606 84 0 0.0 1.0 0.00 0.00 0.00 59 1011.0
20210917005508 84 0 0.0 1.0 0.00 0.00 0.00 60 1010.3
20210917005052 84 95 0.0 1.0 0.00 0.00 0.00 58 1011.0
20210917005008 85 0 0.0 1.0 0.00 0.00 0.00 59 1010.1
20210917004800 85 0 0.0 1.0 0.00 0.00 0.00 58 1011.0
20210917004508 85 0 0.0 1.0 0.00 0.00 0.00 58 1010.1
20210917004053 85 0 0.0 3.0 0.00 0.00 0.00 57 1010.8
20210917004008 86 0 0.0 3.0 0.00 0.00 0.00 58 1010.0
20210917003557 85 85 0.0 3.0 0.00 0.00 0.00 57 1010.8
20210917003508 86 89 0.0 3.0 0.00 0.00 0.00 57 1010.0
20210917003108 86 323 0.0 2.0 0.00 0.00 0.00 56 1010.8
20210917003008 86 47 1.0 2.0 0.00 0.00 0.00 56 1009.9
20210917002601 86 0 0.0 2.0 0.00 0.00 0.00 55 1010.6
20210917002508 87 66 1.0 2.0 0.00 0.00 0.00 56 1009.9
20210917002104 87 72 1.0 4.0 0.00 0.00 0.00 55 1010.8
20210917002008 87 78 1.0 4.0 0.00 0.00 0.00 55 1009.9
20210917001711 87 155 1.0 5.0 0.00 0.00 0.00 54 1010.7
20210917001508 87 69 1.0 5.0 0.00 0.00 0.00 55 1009.9
20210917001111 87 234 0.0 5.0 0.00 0.00 0.00 54 1010.7
20210917001007 88 62 1.0 5.0 0.00 0.00 0.00 54 1009.9
20210917000555 87 34 1.0 5.0 0.00 0.00 0.00 53 1010.7
20210917000508 88 61 1.0 5.0 0.00 0.00 0.00 54 1009.8
20210917000136 88 63 1.0 4.0 0.00 0.00 0.00 53 1010.7
20210917000008 88 61 1.0 4.0 0.00 0.00 0.00 53 1009.8
20210916235551 88 136 1.0 4.0 0.00 0.00 0.00 52 1010.5
20210916235508 88 67 1.0 4.0 0.00 0.00 0.00 53 1009.7
20210916235051 88 136 0.0 4.0 0.00 0.00 0.00 52 1010.5
20210916235008 89 89 1.0 4.0 0.00 0.00 0.00 53 1009.7
20210916234605 88 93 0.0 4.0 0.00 0.00 0.00 52 1010.4
20210916234508 89 75 1.0 4.0 0.00 0.00 0.00 53 1009.6
20210916234051 88 63 1.0 5.0 0.00 0.00 0.00 52 1010.5